Airfield :
LOGIN :

Register | Disclaimer

   EN    FR    IT 

 










Legend :    VFR   Marginal VFR   IFR   Intensive IFR   Very Intensive IFR
Visi :
Ceiling :
>= 8 km
>= 3000ft
5 to 8 km
1000 to 3000 ft
1500m to 5 km
500 to 1000 ft
800 to 1500m
200 to 500 ft
< 800m
< 200 ft
Symbols :   Thunderstorms  Fog  Heavy snow  Heavy precipitations  Wind > 20 kt
SIGMETs :     Misc.  Thunderstorms  Icing  Turbulence  Mountain Waves  Volcanic Ashes







- Airport Elevation : 479 ft
- IATA code : DOL
- Download approach charts


LFRG - Deauville

CURRENT METAR :
  • 151830Z AUTO 02007KT 360V060 CAVOK 18/11 Q1020 NOSIG

EXPIRED METARs :
  • 151800Z AUTO 03007KT 350V060 CAVOK 18/11 Q1020 NOSIG
  • 151730Z AUTO 01009KT CAVOK 19/11 Q1020 NOSIG
  • 151700Z AUTO 02008KT 350V080 CAVOK 19/11 Q1020 NOSIG
  • 151630Z AUTO 01008KT 340V070 CAVOK 19/11 Q1020 NOSIG
  • 151600Z AUTO 03009KT 360V090 9999 FEW031 19/11 Q1021 NOSIG

TAF TAF LFRG
Valid from the 15 at 15:00 until the 16 at 00:00 UTC


151400Z 1515/1524 03010KT 9999 SCT030
BECMG 1522/1524 07005KT
ATIS : +33 2 31 65 65 36
No reported NOTAMs for that airfield.



MET'MAP, your aeronautical weather chart ! - Copyright ORBIFLY December 2007 - Disclaimer

ORBIFLY MET'MAP TEAM :

Programming & Development : Alexandra Zaïnal
Concept & Development : Baudouin d'Aumeries
Co-Development & Prog : Marc-Olivier Méhu
Technical & hardware support : Manuel Goepfert

Contact : metmap@orbifly.com




SOURCES & CREDITS :

   NOAA